Wadena, MN

7:48 AM CDT on March 30, 2017 (GMT -0500)
Wadena Municipal

Weather History for KADC - April, 2013

Change the Weather History Date:

Sunday, April 21, 2013

  Actual Average Record
Temperature  
Mean Temperature 30 °F -  
Max Temperature 35 °F 56 °F 85 °F (1980)
Min Temperature 26 °F 32 °F 17 °F (1936)
Degree Days  
Heating Degree Days 34    
Moisture  
Dew Point 27 °F    
Average Humidity 83    
Maximum Humidity 93    
Minimum Humidity 55    
Precipitation  
Precipitation 0.20 in - - ()
Sea Level Pressure  
Sea Level Pressure 30.07 in    
Wind  
Wind Speed 12 mph (South)    
Max Wind Speed 25 mph    
Max Gust Speed 31 mph    
Visibility 8 miles    
Events Rain , Snow    
Averages and records for this station are not official NWS values.
T = Trace of Precipitation, MM = Missing Value Source: NWS Daily Summary

Daily Weather History Graph

Daily Weather History Graph

Search for Another Location

Airport or City:

Trip Planner

Search our weather history database for the weather conditions in past years. The results will help you decide how hot, cold, wet, or windy it might be!

Date:

Astronomy

Apr. 21, 2013 Rise Set
Actual Time 6:22 AM CDT 8:17 PM CDT
Civil Twilight 5:50 AM CDT 8:49 PM CDT
Nautical Twilight 5:11 AM CDT 9:29 PM CDT
Astronomical Twilight 4:27 AM CDT 10:12 PM CDT
Moon 3:49 PM CDT (4/21) 4:00 AM CDT (4/21)
Length of Visible Light 14h 58m
Length of Day
13h 54m
Waxing Gibbous, 80% of the Moon is Illuminated
Apr 21
Waxing Gibbous
Apr 25
Full
May 2
Last Quarter
May 9
New
May 17
First Quarter

Hourly Weather History & Observations

Time (CDT) Temp. Windchill Dew Point Humidity Pressure Visibility Wind Dir Wind Speed Gust Speed Precip Events Conditions
12:15 AM 26.6 °F 17.5 °F 12.2 °F 55% 30.21 in 10.0 mi SSE 9.2 mph - N/A   Clear
12:35 AM 26.6 °F 16.8 °F 12.2 °F 55% 30.21 in 10.0 mi SSE 10.4 mph - N/A   Mostly Cloudy
12:53 AM 26.6 °F 16.2 °F 14.0 °F 59% 30.22 in 10.0 mi SSE 11.5 mph - N/A   Overcast
1:15 AM 26.6 °F 16.8 °F 14.0 °F 59% 30.21 in 10.0 mi SSE 10.4 mph - N/A   Overcast
1:33 AM 26.6 °F 15.2 °F 15.8 °F 64% 30.20 in 10.0 mi SSE 13.8 mph - N/A   Overcast
1:52 AM 26.6 °F 16.2 °F 17.6 °F 69% 30.20 in 7.0 mi SSE 11.5 mph - N/A Snow Light Snow
2:15 AM 26.6 °F 16.8 °F 19.4 °F 74% 30.20 in 10.0 mi SSE 10.4 mph - N/A   Overcast
2:35 AM 26.6 °F 16.8 °F 19.4 °F 74% 30.19 in 10.0 mi SE 10.4 mph - N/A   Overcast
2:53 AM 26.6 °F 15.7 °F 21.2 °F 80% 30.18 in 10.0 mi SE 12.7 mph - N/A   Overcast
3:15 AM 26.6 °F 16.8 °F 21.2 °F 80% 30.17 in 10.0 mi SE 10.4 mph 17.3 mph N/A   Overcast
3:34 AM 26.6 °F 16.2 °F 21.2 °F 80% 30.17 in 10.0 mi SE 11.5 mph - N/A   Overcast
3:53 AM 26.6 °F 16.2 °F 23.0 °F 86% 30.16 in 10.0 mi SE 11.5 mph 16.1 mph N/A   Overcast
4:15 AM 26.6 °F 16.8 °F 23.0 °F 86% 30.15 in 10.0 mi SE 10.4 mph - N/A   Overcast
4:35 AM 28.4 °F 18.0 °F 23.0 °F 80% 30.14 in 10.0 mi SE 12.7 mph - N/A   Overcast
4:53 AM 28.4 °F 19.7 °F 24.8 °F 86% 30.14 in 10.0 mi SE 9.2 mph - N/A   Overcast
5:15 AM 28.4 °F 18.0 °F 24.8 °F 86% 30.13 in 10.0 mi SE 12.7 mph 19.6 mph N/A   Overcast
5:35 AM 28.4 °F 17.5 °F 24.8 °F 86% 30.12 in 10.0 mi SE 13.8 mph 18.4 mph N/A   Overcast
5:52 AM 28.4 °F 17.5 °F 24.8 °F 86% 30.12 in 10.0 mi SE 13.8 mph 18.4 mph N/A   Overcast
6:15 AM 28.4 °F 16.6 °F 24.8 °F 86% 30.11 in 10.0 mi SE 16.1 mph - N/A   Overcast
6:35 AM 28.4 °F 17.5 °F 24.8 °F 86% 30.11 in 10.0 mi SE 13.8 mph - N/A   Overcast
6:53 AM 28.4 °F 17.5 °F 26.6 °F 93% 30.10 in 10.0 mi SE 13.8 mph - N/A   Overcast
7:15 AM 28.4 °F 18.0 °F 26.6 °F 93% 30.09 in 10.0 mi SE 12.7 mph 21.9 mph N/A   Overcast
7:35 AM 30.2 °F 19.3 °F 26.6 °F 86% 30.09 in 10.0 mi SE 15.0 mph 21.9 mph N/A   Overcast
7:52 AM 30.2 °F 19.3 °F 26.6 °F 86% 30.08 in 10.0 mi SE 15.0 mph - N/A   Overcast
8:14 AM 30.2 °F 19.3 °F 26.6 °F 86% 30.08 in 10.0 mi SE 15.0 mph - N/A   Overcast
8:34 AM 32.0 °F 20.8 °F 26.6 °F 80% 30.07 in 10.0 mi SE 17.3 mph 24.2 mph N/A   Overcast
9:15 AM 33.8 °F 22.8 °F 26.6 °F 75% 30.05 in 10.0 mi SSE 18.4 mph 26.5 mph N/A   Scattered Clouds
9:35 AM 33.8 °F 21.9 °F 26.6 °F 75% 30.04 in 10.0 mi SSE 21.9 mph 25.3 mph N/A   Mostly Cloudy
9:53 AM 33.8 °F 22.5 °F 26.6 °F 75% 30.04 in 10.0 mi SSE 19.6 mph 28.8 mph N/A   Overcast
10:14 AM 33.8 °F 21.0 °F 28.4 °F 81% 30.04 in 10.0 mi SSE 25.3 mph 29.9 mph N/A   Mostly Cloudy
10:35 AM 35.6 °F 24.0 °F 28.4 °F 75% 30.04 in 10.0 mi SSE 23.0 mph 31.1 mph N/A   Mostly Cloudy
10:53 AM 33.8 °F 23.5 °F 28.4 °F 81% 30.04 in 10.0 mi SSE 16.1 mph 20.7 mph N/A   Mostly Cloudy
11:14 AM 35.6 °F 25.5 °F 28.4 °F 75% 30.03 in 10.0 mi SSE 17.3 mph - N/A   Overcast
11:35 AM 35.6 °F 26.2 °F 28.4 °F 75% 30.03 in 10.0 mi SSE 15.0 mph - N/A   Overcast
11:52 AM 33.8 °F 24.8 °F 28.4 °F 81% 30.02 in 10.0 mi SSE 12.7 mph 18.4 mph N/A Rain Light Rain
12:15 PM 35.6 °F 26.6 °F 28.4 °F 75% 30.01 in 10.0 mi SSE 13.8 mph - N/A Rain Light Rain
12:35 PM 35.6 °F 25.9 °F 28.4 °F 75% 30.00 in 10.0 mi SSE 16.1 mph 21.9 mph N/A Rain Light Rain
12:52 PM 35.6 °F 25.9 °F 28.4 °F 75% 29.99 in 10.0 mi SSE 16.1 mph 21.9 mph N/A   Overcast
1:15 PM 35.6 °F 25.5 °F 28.4 °F 75% 29.99 in 10.0 mi South 17.3 mph 25.3 mph N/A   Overcast
1:35 PM 35.6 °F 26.2 °F 30.2 °F 81% 29.99 in 10.0 mi South 15.0 mph 21.9 mph N/A   Drizzle
1:52 PM 35.6 °F 26.2 °F 30.2 °F 81% 29.98 in 10.0 mi South 15.0 mph - N/A Rain Light Rain
2:15 PM 35.6 °F 26.6 °F 30.2 °F 81% 29.96 in 7.0 mi SSE 13.8 mph 18.4 mph N/A Rain Light Rain
2:35 PM 33.8 °F 24.3 °F 30.2 °F 87% 29.98 in 3.0 mi South 13.8 mph - 0.02 in Rain Rain
2:52 PM 33.8 °F 24.8 °F 30.2 °F 87% 29.98 in 4.0 mi South 12.7 mph - 0.06 in Rain Light Rain
3:15 PM 33.8 °F 25.3 °F 30.2 °F 87% 29.98 in 3.0 mi South 11.5 mph - 0.03 in   Overcast
3:35 PM 33.8 °F 27.0 °F 30.2 °F 87% 29.98 in 3.0 mi SSW 8.1 mph - 0.06 in   Overcast
3:52 PM 32.0 °F 25.6 °F 30.2 °F 93% 29.98 in 2.0 mi SSW 6.9 mph - 0.10 in Snow Light Snow
4:15 PM 32.0 °F 26.4 °F 30.2 °F 93% 29.98 in 3.0 mi SSW 5.8 mph - 0.03 in Rain Light Rain
4:35 PM 33.8 °F 28.6 °F 32.0 °F 93% 29.98 in 5.0 mi SW 5.8 mph - 0.04 in Rain Light Rain
4:53 PM 33.8 °F 30.8 °F 32.0 °F 93% 29.98 in 4.0 mi WSW 3.5 mph - 0.04 in Rain Rain
5:15 PM 33.8 °F 30.8 °F 32.0 °F 93% 29.98 in 4.0 mi WSW 3.5 mph - N/A   Overcast
5:35 PM 33.8 °F 29.6 °F 32.0 °F 93% 29.99 in 2.5 mi WSW 4.6 mph - N/A   Light Drizzle
5:53 PM 33.8 °F 30.8 °F 32.0 °F 93% 29.99 in 2.0 mi WSW 3.5 mph - N/A Rain Light Rain
6:15 PM 33.8 °F 28.6 °F 32.0 °F 93% 29.99 in 1.5 mi WSW 5.8 mph - N/A   Light Drizzle
6:34 PM 33.8 °F 27.0 °F 32.0 °F 93% 30.00 in 4.0 mi West 8.1 mph - N/A   Overcast
6:53 PM 33.8 °F 26.4 °F 32.0 °F 93% 30.01 in 4.0 mi West 9.2 mph - N/A   Overcast
7:15 PM 33.8 °F 25.3 °F 30.2 °F 87% 30.01 in 5.0 mi WNW 11.5 mph - N/A   Overcast
7:35 PM 32.0 °F 23.6 °F 30.2 °F 93% 30.02 in 7.0 mi West 10.4 mph - N/A   Overcast
7:53 PM 32.0 °F 25.6 °F 30.2 °F 93% 30.03 in 7.0 mi WNW 6.9 mph - N/A   Overcast
8:15 PM 32.0 °F 24.8 °F 30.2 °F 93% 30.04 in 7.0 mi WNW 8.1 mph - N/A   Overcast
8:35 PM 32.0 °F 23.0 °F 30.2 °F 93% 30.05 in 10.0 mi WNW 11.5 mph 18.4 mph N/A   Overcast
8:52 PM 32.0 °F 23.6 °F 30.2 °F 93% 30.06 in 10.0 mi WNW 10.4 mph - N/A   Overcast
9:14 PM 32.0 °F 23.0 °F 30.2 °F 93% 30.08 in 10.0 mi WNW 11.5 mph 19.6 mph N/A   Overcast
9:35 PM 32.0 °F 23.0 °F 28.4 °F 87% 30.09 in 10.0 mi NW 11.5 mph 19.6 mph N/A   Overcast
9:52 PM 32.0 °F 22.1 °F 28.4 °F 87% 30.10 in 10.0 mi NW 13.8 mph 20.7 mph N/A   Overcast
10:14 PM 32.0 °F 21.2 °F 26.6 °F 80% 30.11 in 10.0 mi NW 16.1 mph 23.0 mph N/A   Overcast
10:35 PM 32.0 °F 23.6 °F 26.6 °F 80% 30.12 in 10.0 mi NW 10.4 mph 19.6 mph N/A   Overcast
10:53 PM 30.2 °F 22.6 °F 26.6 °F 86% 30.12 in 10.0 mi NW 8.1 mph - N/A   Mostly Cloudy
11:14 PM 30.2 °F 23.4 °F 26.6 °F 86% 30.13 in 10.0 mi WNW 6.9 mph - N/A   Overcast
11:35 PM 30.2 °F 18.5 °F 26.6 °F 86% 30.13 in 10.0 mi NW 17.3 mph - N/A   Overcast
11:53 PM 30.2 °F 20.2 °F 26.6 °F 86% 30.13 in 10.0 mi NW 12.7 mph 17.3 mph N/A   Overcast